createdAt,value
2019-05-06T00:00:59.134Z,931.15
2019-05-06T00:01:54.111Z,931.15
2019-05-06T00:02:54.429Z,931.13
2019-05-06T00:03:54.175Z,931.08
2019-05-06T00:04:54.225Z,931.08
2019-05-06T00:05:54.314Z,931.05
2019-05-06T00:06:54.880Z,931.08
2019-05-06T00:07:54.458Z,931.04
2019-05-06T00:08:54.617Z,931.00
2019-05-06T00:09:53.962Z,931.04
2019-05-06T00:10:54.229Z,931.09
2019-05-06T00:11:54.394Z,931.08
2019-05-06T00:12:53.638Z,931.06
2019-05-06T00:13:54.318Z,931.11
2019-05-06T00:14:54.174Z,931.04
2019-05-06T00:15:54.352Z,931.11
2019-05-06T00:16:55.089Z,931.09
2019-05-06T00:17:53.949Z,931.08
2019-05-06T00:18:54.004Z,931.10
2019-05-06T00:19:53.937Z,931.09
2019-05-06T00:20:57.210Z,931.08
2019-05-06T00:21:54.053Z,931.07
2019-05-06T00:22:54.614Z,931.08
2019-05-06T00:23:54.733Z,931.05
2019-05-06T00:24:54.716Z,931.06
2019-05-06T00:25:53.518Z,931.05
2019-05-06T00:26:57.210Z,931.00
2019-05-06T00:27:54.444Z,931.02
2019-05-06T00:28:53.945Z,930.96
2019-05-06T00:29:54.940Z,930.97
2019-05-06T00:30:55.838Z,930.98
2019-05-06T00:31:53.621Z,930.96
2019-05-06T00:32:53.849Z,930.95
2019-05-06T00:33:53.987Z,930.99
2019-05-06T00:34:54.660Z,931.00
2019-05-06T00:35:53.816Z,930.96
2019-05-06T00:36:54.474Z,930.98
2019-05-06T00:37:53.645Z,930.94
2019-05-06T00:38:53.934Z,930.90
2019-05-06T00:39:53.895Z,930.95
2019-05-06T00:40:54.313Z,930.94
2019-05-06T00:41:54.193Z,930.90
2019-05-06T00:42:54.212Z,930.94
2019-05-06T00:43:54.669Z,930.93
2019-05-06T00:44:53.718Z,930.90
2019-05-06T00:45:53.633Z,930.90
2019-05-06T00:46:54.587Z,930.88
2019-05-06T00:47:53.575Z,930.88
2019-05-06T00:48:54.234Z,930.93
2019-05-06T00:49:54.573Z,930.91
2019-05-06T00:50:53.575Z,930.90
2019-05-06T00:51:54.882Z,930.88
2019-05-06T00:52:53.968Z,930.95
2019-05-06T00:53:54.422Z,930.96
2019-05-06T00:54:54.520Z,930.96
2019-05-06T00:55:53.781Z,930.96
2019-05-06T00:56:54.131Z,930.95
2019-05-06T00:57:54.322Z,930.97
2019-05-06T00:58:54.456Z,930.96
2019-05-06T00:59:53.849Z,931.00
2019-05-06T01:00:53.776Z,930.99
2019-05-06T01:01:53.861Z,931.03
2019-05-06T01:02:54.213Z,930.98
2019-05-06T01:03:53.678Z,931.01
2019-05-06T01:04:54.128Z,930.97
2019-05-06T01:05:54.238Z,930.99
2019-05-06T01:06:54.293Z,930.97
2019-05-06T01:07:54.713Z,930.96
2019-05-06T01:08:54.262Z,930.92
2019-05-06T01:09:54.029Z,930.96
2019-05-06T01:10:54.246Z,930.96
2019-05-06T01:11:54.071Z,930.98
2019-05-06T01:12:54.348Z,930.92
2019-05-06T01:13:52.147Z,930.90
2019-05-06T01:14:54.382Z,930.98
2019-05-06T01:15:52.119Z,930.90
2019-05-06T01:16:52.086Z,930.94
2019-05-06T01:17:53.849Z,930.95
2019-05-06T01:18:54.033Z,930.91
2019-05-06T01:19:53.979Z,930.90
2019-05-06T01:20:54.026Z,930.89
2019-05-06T01:21:53.886Z,930.87
2019-05-06T01:22:54.314Z,930.86
2019-05-06T01:23:51.946Z,930.87
2019-05-06T01:24:51.919Z,930.83
2019-05-06T01:25:51.902Z,930.87
2019-05-06T01:26:53.655Z,930.86
2019-05-06T01:27:53.914Z,930.83
2019-05-06T01:28:51.823Z,930.88
2019-05-06T01:29:51.831Z,930.84
2019-05-06T01:30:53.541Z,930.85
2019-05-06T01:31:54.222Z,930.82
2019-05-06T01:32:51.752Z,930.75
2019-05-06T01:33:53.558Z,930.80
2019-05-06T01:34:53.733Z,930.78
2019-05-06T01:35:54.071Z,930.79
2019-05-06T01:36:51.679Z,930.78
2019-05-06T01:37:51.659Z,930.77
2019-05-06T01:38:53.507Z,930.76
2019-05-06T01:39:51.605Z,930.83
2019-05-06T01:40:51.594Z,930.82
2019-05-06T01:41:53.539Z,930.83
2019-05-06T01:42:51.543Z,930.83
2019-05-06T01:43:51.524Z,930.78
2019-05-06T01:44:51.502Z,930.79
2019-05-06T01:45:53.520Z,930.81
2019-05-06T01:46:51.445Z,930.80
2019-05-06T01:47:51.448Z,930.82
2019-05-06T01:48:53.454Z,930.79
2019-05-06T01:49:53.595Z,930.80
2019-05-06T01:50:51.385Z,930.77
2019-05-06T01:51:51.342Z,930.79
2019-05-06T01:52:51.349Z,930.74
2019-05-06T01:53:51.326Z,930.71
2019-05-06T01:54:51.304Z,930.74
2019-05-06T01:55:51.253Z,930.74
2019-05-06T01:56:51.237Z,930.73
2019-05-06T01:57:51.236Z,930.76
2019-05-06T01:58:53.448Z,930.74
2019-05-06T01:59:51.188Z,930.76
2019-05-06T02:00:51.179Z,930.76
2019-05-06T02:01:58.034Z,930.76
2019-05-06T02:02:51.135Z,930.74
2019-05-06T02:03:51.121Z,930.71
2019-05-06T02:04:51.068Z,930.69
2019-05-06T02:05:51.083Z,930.74
2019-05-06T02:06:51.055Z,930.73
2019-05-06T02:07:51.033Z,930.76
2019-05-06T02:08:51.014Z,930.80
2019-05-06T02:09:50.982Z,930.77
2019-05-06T02:10:50.959Z,930.74
2019-05-06T02:11:50.949Z,930.80
2019-05-06T02:12:50.937Z,930.76
2019-05-06T02:13:50.886Z,930.76
2019-05-06T02:14:50.863Z,930.80
2019-05-06T02:15:50.870Z,930.76
2019-05-06T02:16:50.847Z,930.77
2019-05-06T02:17:50.816Z,930.77
2019-05-06T02:18:50.793Z,930.78
2019-05-06T02:19:50.789Z,930.77
2019-05-06T02:20:50.767Z,930.75
2019-05-06T02:21:50.715Z,930.74
2019-05-06T02:22:50.770Z,930.71
2019-05-06T02:23:50.689Z,930.78
2019-05-06T02:24:50.667Z,930.74
2019-05-06T02:25:50.658Z,930.79
2019-05-06T02:26:50.635Z,930.79
2019-05-06T02:27:50.604Z,930.76
2019-05-06T02:28:50.594Z,930.79
2019-05-06T02:29:50.562Z,930.76
2019-05-06T02:30:50.551Z,930.76
2019-05-06T02:31:50.529Z,930.78
2019-05-06T02:32:50.482Z,930.74
2019-05-06T02:33:50.491Z,930.75
2019-05-06T02:34:50.441Z,930.70
2019-05-06T02:35:50.444Z,930.66
2019-05-06T02:36:50.415Z,930.70
2019-05-06T02:37:50.399Z,930.67
2019-05-06T02:38:52.352Z,930.64
2019-05-06T02:39:53.146Z,930.64
2019-05-06T02:40:53.371Z,930.68
2019-05-06T02:41:50.315Z,930.68
2019-05-06T02:42:54.116Z,930.65
2019-05-06T02:43:50.266Z,930.62
2019-05-06T02:44:50.297Z,930.63
2019-05-06T02:45:53.137Z,930.64
2019-05-06T02:46:53.160Z,930.61
2019-05-06T02:47:50.193Z,930.62
2019-05-06T02:48:50.176Z,930.61
2019-05-06T02:49:53.251Z,930.59
2019-05-06T02:50:53.472Z,930.56
2019-05-06T02:51:53.253Z,930.54
2019-05-06T02:52:53.469Z,930.52
2019-05-06T02:53:50.065Z,930.51
2019-05-06T02:54:50.048Z,930.53
2019-05-06T02:55:52.875Z,930.49
2019-05-06T02:56:52.902Z,930.47
2019-05-06T02:57:53.315Z,930.50
2019-05-06T02:58:53.154Z,930.51
2019-05-06T02:59:49.944Z,930.45
2019-05-06T03:00:49.916Z,930.48
2019-05-06T03:01:49.889Z,930.50
2019-05-06T03:02:49.882Z,930.49
2019-05-06T03:03:49.846Z,930.47
2019-05-06T03:04:52.579Z,930.44
2019-05-06T03:05:52.926Z,930.49
2019-05-06T03:06:49.780Z,930.53
2019-05-06T03:07:49.739Z,930.53
2019-05-06T03:08:49.752Z,930.52
2019-05-06T03:09:52.909Z,930.52
2019-05-06T03:10:49.679Z,930.50
2019-05-06T03:11:49.671Z,930.47
2019-05-06T03:12:49.649Z,930.49
2019-05-06T03:13:49.639Z,930.46
2019-05-06T03:14:49.618Z,930.49
2019-05-06T03:15:49.597Z,930.48
2019-05-06T03:16:53.364Z,930.48
2019-05-06T03:17:49.538Z,930.40
2019-05-06T03:18:52.866Z,930.39
2019-05-06T03:19:49.511Z,930.42
2019-05-06T03:20:49.481Z,930.40
2019-05-06T03:21:49.474Z,930.40
2019-05-06T03:22:49.437Z,930.41
2019-05-06T03:23:49.432Z,930.42
2019-05-06T03:24:49.397Z,930.38
2019-05-06T03:25:49.402Z,930.35
2019-05-06T03:26:49.363Z,930.33
2019-05-06T03:27:49.342Z,930.33
2019-05-06T03:28:49.326Z,930.33
2019-05-06T03:29:49.300Z,930.29
2019-05-06T03:30:49.281Z,930.28
2019-05-06T03:31:49.250Z,930.30
2019-05-06T03:33:23.343Z,930.29
2019-05-06T03:34:09.178Z,930.30
2019-05-06T03:35:09.064Z,930.30
2019-05-06T03:36:00.403Z,930.29
2019-05-06T03:36:49.410Z,930.25
2019-05-06T03:37:49.110Z,930.26
2019-05-06T03:38:49.109Z,930.26
2019-05-06T03:39:49.084Z,930.23
2019-05-06T03:40:49.054Z,930.21
2019-05-06T03:41:49.052Z,930.19
2019-05-06T03:42:49.024Z,930.19
2019-05-06T03:43:49.000Z,930.22
2019-05-06T03:44:48.990Z,930.23
2019-05-06T03:45:48.947Z,930.19
2019-05-06T03:46:48.927Z,930.22
2019-05-06T03:47:48.913Z,930.17
2019-05-06T03:48:48.888Z,930.23
2019-05-06T03:49:50.060Z,930.22
2019-05-06T03:50:48.853Z,930.25
2019-05-06T03:51:48.838Z,930.23
2019-05-06T03:52:48.811Z,930.24
2019-05-06T03:53:48.792Z,930.21
2019-05-06T03:54:48.773Z,930.21
2019-05-06T03:55:48.749Z,930.22
2019-05-06T03:56:48.723Z,930.18
2019-05-06T03:57:48.706Z,930.18
2019-05-06T03:58:48.671Z,930.14
2019-05-06T03:59:48.653Z,930.15
2019-05-06T04:00:48.617Z,930.15
2019-05-06T04:01:48.619Z,930.12
2019-05-06T04:02:48.573Z,930.15
2019-05-06T04:03:52.703Z,930.17
2019-05-06T04:04:48.554Z,930.14
2019-05-06T04:05:48.526Z,930.09
2019-05-06T04:06:48.513Z,930.15
2019-05-06T04:07:48.490Z,930.11
2019-05-06T04:08:48.478Z,930.04
2019-05-06T04:09:48.449Z,930.07
2019-05-06T04:10:48.423Z,930.08
2019-05-06T04:11:48.405Z,930.08
2019-05-06T04:12:48.377Z,930.10
2019-05-06T04:13:48.372Z,930.04
2019-05-06T04:14:48.340Z,930.07
2019-05-06T04:15:48.322Z,930.09
2019-05-06T04:16:48.635Z,930.09
2019-05-06T04:17:48.277Z,930.07
2019-05-06T04:18:48.252Z,930.08
2019-05-06T04:19:48.234Z,930.05
2019-05-06T04:20:48.202Z,930.06
2019-05-06T04:21:48.192Z,930.08
2019-05-06T04:22:48.159Z,930.06
2019-05-06T04:23:48.135Z,930.06
2019-05-06T04:24:48.127Z,930.08
2019-05-06T04:25:48.180Z,930.02
2019-05-06T04:26:48.088Z,929.99
2019-05-06T04:27:48.069Z,929.96
2019-05-06T04:28:48.034Z,929.94
2019-05-06T04:29:48.022Z,929.93
2019-05-06T04:30:47.991Z,929.91
2019-05-06T04:31:47.955Z,929.87
2019-05-06T04:32:47.961Z,929.90
2019-05-06T04:34:05.313Z,929.86
2019-05-06T04:34:47.915Z,929.88
2019-05-06T04:35:47.867Z,929.85
2019-05-06T04:36:47.838Z,929.85
2019-05-06T04:37:47.838Z,929.82
2019-05-06T04:38:47.835Z,929.82
2019-05-06T04:39:47.810Z,929.81
2019-05-06T04:40:47.783Z,929.78
2019-05-06T04:41:47.752Z,929.81
2019-05-06T04:42:47.728Z,929.81
2019-05-06T04:43:47.692Z,929.79
2019-05-06T04:44:47.700Z,929.77
2019-05-06T04:45:47.678Z,929.79
2019-05-06T04:46:47.658Z,929.81
2019-05-06T04:47:47.635Z,929.82
2019-05-06T04:48:47.611Z,929.79
2019-05-06T04:49:47.579Z,929.81
2019-05-06T04:50:47.569Z,929.77
2019-05-06T04:51:47.526Z,929.81
2019-05-06T04:52:47.502Z,929.82
2019-05-06T04:53:47.502Z,929.81
2019-05-06T04:54:47.478Z,929.76
2019-05-06T04:55:47.448Z,929.76
2019-05-06T04:56:47.440Z,929.79
2019-05-06T04:57:47.422Z,929.81
2019-05-06T04:58:47.387Z,929.81
2019-05-06T04:59:47.375Z,929.84
2019-05-06T05:00:47.341Z,929.84
2019-05-06T05:01:47.344Z,929.85
2019-05-06T05:02:47.315Z,929.87
2019-05-06T05:03:47.277Z,929.87
2019-05-06T05:04:47.347Z,929.87
2019-05-06T05:05:47.235Z,929.89
2019-05-06T05:06:47.225Z,929.86
2019-05-06T05:07:47.202Z,929.88
2019-05-06T05:08:47.179Z,929.89
2019-05-06T05:09:47.160Z,929.89
2019-05-06T05:10:47.127Z,929.86
2019-05-06T05:11:47.118Z,929.81
2019-05-06T05:12:47.090Z,929.83
2019-05-06T05:13:47.078Z,929.85
2019-05-06T05:14:47.051Z,929.82
2019-05-06T05:15:47.017Z,929.88
2019-05-06T05:16:47.010Z,929.87
2019-05-06T05:17:46.974Z,929.89
2019-05-06T05:18:46.957Z,929.89
2019-05-06T05:19:46.917Z,929.92
2019-05-06T05:20:47.027Z,929.92
2019-05-06T05:21:46.887Z,929.93
2019-05-06T05:22:46.876Z,929.83
2019-05-06T05:23:46.854Z,929.83
2019-05-06T05:24:46.834Z,929.89
2019-05-06T05:25:46.807Z,929.92
2019-05-06T05:26:47.199Z,929.89
2019-05-06T05:27:46.759Z,929.85
2019-05-06T05:28:46.752Z,929.87
2019-05-06T05:29:46.705Z,929.87
2019-05-06T05:30:46.677Z,929.88
2019-05-06T05:31:46.683Z,929.86
2019-05-06T05:32:46.667Z,929.79
2019-05-06T05:33:46.643Z,929.80
2019-05-06T05:34:46.624Z,929.85
2019-05-06T05:35:46.579Z,929.83
2019-05-06T05:36:46.578Z,929.85
2019-05-06T05:37:46.554Z,929.87
2019-05-06T05:38:46.536Z,929.82
2019-05-06T05:39:46.513Z,929.84
2019-05-06T05:40:46.464Z,929.84
2019-05-06T05:41:46.472Z,929.78
2019-05-06T05:42:46.446Z,929.85
2019-05-06T05:43:46.420Z,929.81
2019-05-06T05:44:46.405Z,929.78
2019-05-06T05:45:46.383Z,929.78
2019-05-06T05:46:46.352Z,929.78
2019-05-06T05:47:46.318Z,929.73
2019-05-06T05:48:46.299Z,929.65
2019-05-06T05:49:46.297Z,929.72
2019-05-06T05:50:46.277Z,929.71
2019-05-06T05:51:46.258Z,929.66
2019-05-06T05:52:46.232Z,929.70
2019-05-06T05:53:46.206Z,929.66
2019-05-06T05:54:46.187Z,929.65
2019-05-06T05:55:46.142Z,929.69
2019-05-06T05:56:46.144Z,929.69
2019-05-06T05:57:46.124Z,929.71
2019-05-06T05:58:46.101Z,929.69
2019-05-06T05:59:46.080Z,929.69
2019-05-06T06:00:46.061Z,929.67
2019-05-06T06:01:46.047Z,929.72
2019-05-06T06:02:46.017Z,929.71
2019-05-06T06:03:45.995Z,929.74
2019-05-06T06:04:56.884Z,929.70
2019-05-06T06:05:45.958Z,929.66
2019-05-06T06:06:45.931Z,929.69
2019-05-06T06:07:45.909Z,929.68
2019-05-06T06:08:45.887Z,929.67
2019-05-06T06:09:45.872Z,929.63
2019-05-06T06:10:45.841Z,929.60
2019-05-06T06:11:45.823Z,929.58
2019-05-06T06:12:45.801Z,929.52
2019-05-06T06:13:45.767Z,929.57
2019-05-06T06:14:47.306Z,929.53
2019-05-06T06:15:45.707Z,929.50
2019-05-06T06:16:45.711Z,929.55
2019-05-06T06:17:45.762Z,929.53
2019-05-06T06:18:45.642Z,929.54
2019-05-06T06:19:45.642Z,929.56
2019-05-06T06:20:45.628Z,929.53
2019-05-06T06:21:45.594Z,929.49
2019-05-06T06:22:45.571Z,929.46
2019-05-06T06:23:45.534Z,929.46
2019-05-06T06:24:45.509Z,929.48
2019-05-06T06:25:45.525Z,929.49
2019-05-06T06:26:45.489Z,929.46
2019-05-06T06:27:45.473Z,929.51
2019-05-06T06:28:45.451Z,929.51
2019-05-06T06:29:45.539Z,929.49
2019-05-06T06:30:45.396Z,929.40
2019-05-06T06:31:45.388Z,929.45
2019-05-06T06:32:45.353Z,929.48
2019-05-06T06:33:45.347Z,929.46
2019-05-06T06:34:45.323Z,929.43
2019-05-06T06:35:45.305Z,929.40
2019-05-06T06:36:45.279Z,929.44
2019-05-06T06:37:45.254Z,929.42
2019-05-06T06:38:45.231Z,929.42
2019-05-06T06:39:45.183Z,929.43
2019-05-06T06:40:45.186Z,929.40
2019-05-06T06:41:45.139Z,929.43
2019-05-06T06:42:45.143Z,929.44
2019-05-06T06:43:45.125Z,929.44
2019-05-06T06:44:45.080Z,929.39
2019-05-06T06:45:45.084Z,929.42
2019-05-06T06:46:45.062Z,929.40
2019-05-06T06:47:45.038Z,929.40
2019-05-06T06:48:45.005Z,929.40
2019-05-06T06:49:44.993Z,929.39
2019-05-06T06:50:44.965Z,929.40
2019-05-06T06:51:44.955Z,929.44
2019-05-06T06:52:44.924Z,929.40
2019-05-06T06:53:44.907Z,929.43
2019-05-06T06:54:44.858Z,929.41
2019-05-06T06:55:44.864Z,929.41
2019-05-06T06:56:44.829Z,929.39
2019-05-06T06:57:44.825Z,929.38
2019-05-06T06:58:44.794Z,929.41
2019-05-06T06:59:44.772Z,929.36
2019-05-06T07:00:44.754Z,929.37
2019-05-06T07:01:44.706Z,929.32
2019-05-06T07:02:44.680Z,929.33
2019-05-06T07:03:44.684Z,929.26
2019-05-06T07:04:44.666Z,929.32
2019-05-06T07:05:44.633Z,929.29
2019-05-06T07:06:44.623Z,929.33
2019-05-06T07:07:47.510Z,929.29
2019-05-06T07:08:44.567Z,929.26
2019-05-06T07:09:44.533Z,929.26
2019-05-06T07:10:44.511Z,929.23
2019-05-06T07:11:44.517Z,929.20
2019-05-06T07:12:44.496Z,929.20
2019-05-06T07:13:44.456Z,929.20
2019-05-06T07:14:44.450Z,929.13
2019-05-06T07:15:44.426Z,929.16
2019-05-06T07:16:44.397Z,929.19
2019-05-06T07:17:44.381Z,929.16
2019-05-06T07:18:44.349Z,929.15
2019-05-06T07:19:44.307Z,929.16
2019-05-06T07:20:44.316Z,929.13
2019-05-06T07:21:44.379Z,929.15
2019-05-06T07:22:44.248Z,929.12
2019-05-06T07:23:44.238Z,929.13
2019-05-06T07:24:44.228Z,929.13
2019-05-06T07:25:44.199Z,929.15
2019-05-06T07:26:44.185Z,929.07
2019-05-06T07:27:44.139Z,929.07
2019-05-06T07:28:44.147Z,929.06
2019-05-06T07:29:48.162Z,929.10
2019-05-06T07:30:44.093Z,929.05
2019-05-06T07:31:44.066Z,929.06
2019-05-06T07:32:44.050Z,929.06
2019-05-06T07:33:44.018Z,929.10
2019-05-06T07:34:43.996Z,929.15
2019-05-06T07:35:44.082Z,929.13
2019-05-06T07:36:43.952Z,929.17
2019-05-06T07:37:43.945Z,929.18
2019-05-06T07:38:43.897Z,929.21
2019-05-06T07:39:43.895Z,929.21
2019-05-06T07:40:43.865Z,929.20
2019-05-06T07:41:46.113Z,929.19
2019-05-06T07:42:43.819Z,929.19
2019-05-06T07:43:43.809Z,929.24
2019-05-06T07:44:43.791Z,929.28
2019-05-06T07:45:43.741Z,929.28
2019-05-06T07:46:43.720Z,929.28
2019-05-06T07:47:43.725Z,929.29
2019-05-06T07:48:43.676Z,929.28
2019-05-06T07:49:43.676Z,929.31
2019-05-06T07:50:43.667Z,929.28
2019-05-06T07:51:43.956Z,929.28
2019-05-06T07:52:43.611Z,929.30
2019-05-06T07:53:43.591Z,929.33
2019-05-06T07:54:43.558Z,929.32
2019-05-06T07:55:43.517Z,929.34
2019-05-06T07:56:43.499Z,929.32
2019-05-06T07:57:43.504Z,929.31
2019-05-06T07:58:43.653Z,929.35
2019-05-06T07:59:43.447Z,929.37
2019-05-06T08:00:43.430Z,929.36
2019-05-06T08:01:44.208Z,929.34
2019-05-06T08:02:43.390Z,929.38
2019-05-06T08:03:43.344Z,929.37
2019-05-06T08:04:43.355Z,929.35
2019-05-06T08:05:54.713Z,929.34
2019-05-06T08:06:43.306Z,929.34
2019-05-06T08:07:43.275Z,929.35
2019-05-06T08:08:43.634Z,929.39
2019-05-06T08:09:43.233Z,929.35
2019-05-06T08:10:43.205Z,929.36
2019-05-06T08:11:43.182Z,929.39
2019-05-06T08:12:43.160Z,929.40
2019-05-06T08:13:43.615Z,929.38
2019-05-06T08:14:43.444Z,929.35
2019-05-06T08:15:43.109Z,929.33
2019-05-06T08:16:44.483Z,929.32
2019-05-06T08:17:43.065Z,929.32
2019-05-06T08:18:43.031Z,929.30
2019-05-06T08:19:43.007Z,929.31
2019-05-06T08:20:42.995Z,929.31
2019-05-06T08:21:43.280Z,929.31
2019-05-06T08:22:42.954Z,929.33
2019-05-06T08:23:42.964Z,929.35
2019-05-06T08:24:42.922Z,929.37
2019-05-06T08:25:42.874Z,929.36
2019-05-06T08:26:42.963Z,929.36
2019-05-06T08:27:42.846Z,929.38
2019-05-06T08:28:44.515Z,929.43
2019-05-06T08:29:42.803Z,929.42
2019-05-06T08:30:43.265Z,929.45
2019-05-06T08:31:43.079Z,929.45
2019-05-06T08:32:42.742Z,929.44
2019-05-06T08:33:43.185Z,929.46
2019-05-06T08:34:42.695Z,929.47
2019-05-06T08:35:42.739Z,929.50
2019-05-06T08:36:42.888Z,929.53
2019-05-06T08:37:42.736Z,929.51
2019-05-06T08:38:42.604Z,929.52
2019-05-06T08:39:45.821Z,929.51
2019-05-06T08:40:43.248Z,929.53
2019-05-06T08:41:42.528Z,929.54
2019-05-06T08:42:42.762Z,929.55
2019-05-06T08:43:42.496Z,929.57
2019-05-06T08:44:42.794Z,929.56
2019-05-06T08:45:42.473Z,929.58
2019-05-06T08:46:43.088Z,929.60
2019-05-06T08:47:42.770Z,929.57
2019-05-06T08:48:42.854Z,929.64
2019-05-06T08:49:42.337Z,929.66
2019-05-06T08:50:42.581Z,929.66
2019-05-06T08:51:42.715Z,929.67
2019-05-06T08:52:42.505Z,929.66
2019-05-06T08:53:42.492Z,929.71
2019-05-06T08:54:43.348Z,929.68
2019-05-06T08:55:42.226Z,929.62
2019-05-06T08:56:42.681Z,929.64
2019-05-06T08:57:42.182Z,929.63
2019-05-06T08:58:43.174Z,929.66
2019-05-06T08:59:42.457Z,929.65
2019-05-06T09:00:42.878Z,929.69
2019-05-06T09:01:42.559Z,929.64
2019-05-06T09:02:43.207Z,929.64
2019-05-06T09:03:42.340Z,929.67
2019-05-06T09:04:42.745Z,929.65
2019-05-06T09:05:42.332Z,929.65
2019-05-06T09:06:43.183Z,929.66
2019-05-06T09:07:42.993Z,929.70
2019-05-06T09:08:42.962Z,929.68
2019-05-06T09:09:42.195Z,929.70
2019-05-06T09:10:42.939Z,929.78
2019-05-06T09:11:43.158Z,929.79
2019-05-06T09:12:42.556Z,929.87
2019-05-06T09:13:42.867Z,929.85
2019-05-06T09:14:43.065Z,929.93
2019-05-06T09:15:42.848Z,929.97
2019-05-06T09:16:43.803Z,929.94
2019-05-06T09:17:42.082Z,929.98
2019-05-06T09:18:42.609Z,929.95
2019-05-06T09:19:42.680Z,929.96
2019-05-06T09:20:43.165Z,930.00
2019-05-06T09:21:45.655Z,930.00
2019-05-06T09:22:42.958Z,930.03
2019-05-06T09:23:42.454Z,930.03
2019-05-06T09:24:42.644Z,930.04
2019-05-06T09:25:42.444Z,930.01
2019-05-06T09:26:43.127Z,930.00
2019-05-06T09:27:42.155Z,930.02
2019-05-06T09:28:42.668Z,930.00
2019-05-06T09:29:42.987Z,929.99
2019-05-06T09:30:43.196Z,930.01
2019-05-06T09:31:42.799Z,930.04
2019-05-06T09:32:42.862Z,930.03
2019-05-06T09:33:42.480Z,930.06
2019-05-06T09:34:43.134Z,930.08
2019-05-06T09:35:42.234Z,930.10
2019-05-06T09:36:51.432Z,930.12
2019-05-06T09:37:42.930Z,930.19
2019-05-06T09:38:42.438Z,930.16
2019-05-06T09:39:43.057Z,930.12
2019-05-06T09:40:43.106Z,930.15
2019-05-06T09:41:46.686Z,930.13
2019-05-06T09:42:42.596Z,930.12
2019-05-06T09:43:43.332Z,930.17
2019-05-06T09:44:42.778Z,930.12
2019-05-06T09:45:42.539Z,930.15
2019-05-06T09:46:42.691Z,930.14
2019-05-06T09:47:42.457Z,930.17
2019-05-06T09:48:42.435Z,930.20
2019-05-06T09:49:42.626Z,930.21
2019-05-06T09:50:45.490Z,930.20
2019-05-06T09:51:42.498Z,930.19
2019-05-06T09:52:42.747Z,930.25
2019-05-06T09:53:43.223Z,930.23
2019-05-06T09:54:42.790Z,930.29
2019-05-06T09:55:42.873Z,930.34
2019-05-06T09:56:42.763Z,930.41
2019-05-06T09:57:42.661Z,930.44
2019-05-06T09:58:42.887Z,930.47
2019-05-06T09:59:42.205Z,930.52
2019-05-06T10:00:42.887Z,930.50
2019-05-06T10:01:43.557Z,930.50
2019-05-06T10:02:42.955Z,930.53
2019-05-06T10:03:42.677Z,930.51
2019-05-06T10:04:42.687Z,930.51
2019-05-06T10:05:42.550Z,930.48
2019-05-06T10:06:54.985Z,930.55
2019-05-06T10:07:40.658Z,930.57
2019-05-06T10:08:40.636Z,930.56
2019-05-06T10:09:43.218Z,930.58
2019-05-06T10:10:53.753Z,930.54
2019-05-06T10:11:42.305Z,930.61
2019-05-06T10:12:42.050Z,930.63
2019-05-06T10:13:42.932Z,930.63
2019-05-06T10:14:42.986Z,930.69
2019-05-06T10:15:42.640Z,930.68
2019-05-06T10:16:42.778Z,930.71
2019-05-06T10:17:42.747Z,930.80
2019-05-06T10:18:40.450Z,930.76
2019-05-06T10:19:42.417Z,930.83
2019-05-06T10:20:42.675Z,930.89
2019-05-06T10:21:42.777Z,930.92
2019-05-06T10:22:40.363Z,930.95
2019-05-06T10:23:42.294Z,930.95
2019-05-06T10:24:42.457Z,930.99
2019-05-06T10:25:40.308Z,930.96
2019-05-06T10:26:40.303Z,931.02
2019-05-06T10:27:42.230Z,931.02
2019-05-06T10:28:40.270Z,931.09
2019-05-06T10:29:40.248Z,931.15
2019-05-06T10:30:40.331Z,931.14
2019-05-06T10:31:40.215Z,931.19
2019-05-06T10:32:42.493Z,931.13
2019-05-06T10:33:40.176Z,931.20
2019-05-06T10:34:40.136Z,931.15
2019-05-06T10:35:42.691Z,931.13
2019-05-06T10:36:42.586Z,931.10
2019-05-06T10:37:42.190Z,931.07
2019-05-06T10:38:42.034Z,931.08
2019-05-06T10:39:40.079Z,931.12
2019-05-06T10:40:56.231Z,931.13
2019-05-06T10:41:42.061Z,931.15
2019-05-06T10:42:40.035Z,931.11
2019-05-06T10:43:39.999Z,931.07
2019-05-06T10:44:42.616Z,931.09
2019-05-06T10:45:39.967Z,931.14
2019-05-06T10:46:39.958Z,931.06
2019-05-06T10:47:42.212Z,931.09
2019-05-06T10:48:42.266Z,931.10
2019-05-06T10:49:41.922Z,931.12
2019-05-06T10:50:39.884Z,931.13
2019-05-06T10:51:39.866Z,931.15
2019-05-06T10:52:39.850Z,931.14
2019-05-06T10:53:42.313Z,931.11
2019-05-06T10:54:42.014Z,931.13
2019-05-06T10:55:39.880Z,931.20
2019-05-06T10:56:50.791Z,931.17
2019-05-06T10:57:40.470Z,931.23
2019-05-06T10:58:39.757Z,931.20
2019-05-06T10:59:39.740Z,931.23
2019-05-06T11:00:39.721Z,931.27
2019-05-06T11:01:39.688Z,931.27
2019-05-06T11:02:39.689Z,931.34
2019-05-06T11:03:41.557Z,931.43
2019-05-06T11:04:39.658Z,931.49
2019-05-06T11:05:39.642Z,931.51
2019-05-06T11:06:39.626Z,931.55
2019-05-06T11:07:39.606Z,931.51
2019-05-06T11:08:41.915Z,931.50
2019-05-06T11:09:39.555Z,931.50
2019-05-06T11:10:41.371Z,931.47
2019-05-06T11:11:39.553Z,931.51
2019-05-06T11:12:39.534Z,931.43
2019-05-06T11:13:39.513Z,931.45
2019-05-06T11:14:39.497Z,931.39
2019-05-06T11:15:39.461Z,931.43
2019-05-06T11:16:39.445Z,931.46
2019-05-06T11:17:39.452Z,931.48
2019-05-06T11:18:39.432Z,931.48
2019-05-06T11:19:39.424Z,931.53
2019-05-06T11:20:39.400Z,931.55
2019-05-06T11:21:39.387Z,931.57
2019-05-06T11:22:39.388Z,931.62
2019-05-06T11:23:41.764Z,931.64
2019-05-06T11:24:39.343Z,931.70
2019-05-06T11:25:39.326Z,931.77
2019-05-06T11:26:39.306Z,931.80
2019-05-06T11:27:41.804Z,931.76
2019-05-06T11:28:39.281Z,931.71
2019-05-06T11:29:39.315Z,931.65
2019-05-06T11:30:39.250Z,931.61
2019-05-06T11:31:39.234Z,931.57
2019-05-06T11:32:41.233Z,931.61
2019-05-06T11:33:39.204Z,931.72
2019-05-06T11:34:39.196Z,931.86
2019-05-06T11:35:39.160Z,931.88
2019-05-06T11:36:39.155Z,931.79
2019-05-06T11:37:46.940Z,931.70
2019-05-06T11:38:39.107Z,931.61
2019-05-06T11:39:39.106Z,931.54
2019-05-06T11:40:39.180Z,931.51
2019-05-06T11:41:39.084Z,931.54
2019-05-06T11:42:39.073Z,931.55
2019-05-06T11:43:39.059Z,931.56
2019-05-06T11:44:39.042Z,931.60
2019-05-06T11:45:39.025Z,931.55
2019-05-06T11:46:39.009Z,931.54
2019-05-06T11:47:38.993Z,931.54
2019-05-06T11:48:38.973Z,931.54
2019-05-06T11:49:38.994Z,931.57
2019-05-06T11:50:38.949Z,931.70
2019-05-06T11:51:38.915Z,931.71
2019-05-06T11:52:38.920Z,931.72
2019-05-06T11:53:38.900Z,931.67
2019-05-06T11:54:38.887Z,931.72
2019-05-06T11:55:39.109Z,931.72
2019-05-06T11:56:48.751Z,931.71
2019-05-06T11:57:38.840Z,931.73
2019-05-06T11:58:38.831Z,931.67
2019-05-06T11:59:38.792Z,931.35
2019-05-06T12:00:38.782Z,931.37
2019-05-06T12:01:38.771Z,931.41
2019-05-06T12:02:41.476Z,931.31
2019-05-06T12:03:38.761Z,931.24
2019-05-06T12:04:38.741Z,931.26
2019-05-06T12:05:38.708Z,931.22
2019-05-06T12:06:38.718Z,931.29
2019-05-06T12:07:38.691Z,931.44
2019-05-06T12:08:38.683Z,931.65
2019-05-06T12:09:38.669Z,931.60
2019-05-06T12:10:38.653Z,931.71
2019-05-06T12:11:38.653Z,931.73
2019-05-06T12:12:38.610Z,931.70
2019-05-06T12:13:38.589Z,931.75
2019-05-06T12:14:38.575Z,931.77
2019-05-06T12:15:38.583Z,931.74
2019-05-06T12:16:38.572Z,931.80
2019-05-06T12:17:38.554Z,931.79
2019-05-06T12:18:38.540Z,931.83
2019-05-06T12:19:38.527Z,931.04
2019-05-06T12:20:38.495Z,931.02
2019-05-06T12:21:38.485Z,931.02
2019-05-06T12:22:38.467Z,930.99
2019-05-06T12:23:38.470Z,930.97
2019-05-06T12:24:38.453Z,930.97
2019-05-06T12:25:38.446Z,930.93
2019-05-06T12:26:38.427Z,930.95
2019-05-06T12:27:38.418Z,931.54
2019-05-06T12:28:38.385Z,931.94